createdAt,value
2023-03-06T00:01:12.864Z,38.17
2023-03-06T00:03:58.858Z,34.55
2023-03-06T00:06:44.842Z,36.43
2023-03-06T00:09:30.639Z,36.92
2023-03-06T00:12:16.629Z,40.21
2023-03-06T00:15:04.058Z,45.15
2023-03-06T00:17:51.627Z,48.60
2023-03-06T00:20:37.569Z,47.46
2023-03-06T00:23:23.395Z,46.37
2023-03-06T00:26:09.254Z,41.58
2023-03-06T00:28:55.251Z,45.32
2023-03-06T00:31:41.175Z,46.98
2023-03-06T00:34:27.259Z,48.79
2023-03-06T00:37:13.288Z,48.14
2023-03-06T00:39:59.126Z,47.97
2023-03-06T00:42:45.051Z,45.78
2023-03-06T00:45:30.892Z,47.32
2023-03-06T00:48:16.923Z,47.79
2023-03-06T00:51:02.924Z,45.70
2023-03-06T00:53:48.726Z,42.60
2023-03-06T00:56:34.564Z,39.52
2023-03-06T00:59:20.473Z,41.73
2023-03-06T01:02:06.459Z,43.32
2023-03-06T01:04:52.404Z,44.52
2023-03-06T01:07:38.412Z,45.50
2023-03-06T01:10:24.435Z,44.59
2023-03-06T01:13:10.377Z,46.10
2023-03-06T01:15:56.208Z,46.84
2023-03-06T01:18:42.156Z,48.93
2023-03-06T01:21:28.000Z,50.23
2023-03-06T01:24:13.933Z,47.80
2023-03-06T01:26:59.952Z,49.30
2023-03-06T01:29:46.282Z,50.56
2023-03-06T01:32:32.202Z,51.69
2023-03-06T01:35:18.786Z,52.51
2023-03-06T01:38:06.671Z,54.26
2023-03-06T01:40:52.586Z,53.30
2023-03-06T01:43:38.563Z,53.69
2023-03-06T01:46:24.521Z,53.56
2023-03-06T01:49:10.370Z,53.68
2023-03-06T01:51:56.168Z,52.11
2023-03-06T01:54:42.074Z,52.30
2023-03-06T01:57:27.984Z,51.51
2023-03-06T02:00:14.230Z,49.73
2023-03-06T02:03:00.260Z,49.92
2023-03-06T02:05:46.195Z,47.75
2023-03-06T02:08:32.004Z,48.76
2023-03-06T02:11:18.019Z,49.12
2023-03-06T02:14:03.844Z,52.05
2023-03-06T02:16:49.722Z,52.90
2023-03-06T02:19:35.529Z,53.95
2023-03-06T02:22:21.386Z,56.06
2023-03-06T02:25:07.213Z,54.60
2023-03-06T02:27:53.142Z,55.83
2023-03-06T02:30:39.052Z,53.48
2023-03-06T02:33:27.128Z,53.36
2023-03-06T02:36:12.995Z,51.86
2023-03-06T02:38:58.894Z,51.89
2023-03-06T02:41:44.801Z,51.98
2023-03-06T02:44:31.065Z,52.39
2023-03-06T02:47:16.980Z,51.44
2023-03-06T02:50:04.861Z,50.89
2023-03-06T02:52:50.629Z,51.77
2023-03-06T02:55:36.568Z,51.13
2023-03-06T02:58:22.603Z,52.04
2023-03-06T03:01:08.416Z,52.33
2023-03-06T03:03:54.273Z,52.09
2023-03-06T03:06:40.012Z,55.09
2023-03-06T03:09:25.857Z,55.31
2023-03-06T03:12:15.281Z,56.09
2023-03-06T03:15:01.069Z,55.80
2023-03-06T03:17:46.941Z,56.50
2023-03-06T03:20:32.659Z,55.74
2023-03-06T03:23:18.500Z,57.35
2023-03-06T03:26:04.409Z,56.79
2023-03-06T03:28:50.357Z,57.31
2023-03-06T03:31:36.187Z,56.14
2023-03-06T03:34:22.124Z,56.79
2023-03-06T03:37:07.943Z,57.59
2023-03-06T03:39:53.825Z,56.70
2023-03-06T03:42:39.808Z,57.40
2023-03-06T03:45:25.664Z,57.51
2023-03-06T03:48:11.585Z,54.47
2023-03-06T03:50:57.622Z,55.77
2023-03-06T03:53:43.505Z,55.95
2023-03-06T03:56:29.451Z,54.97
2023-03-06T03:59:15.429Z,55.49
2023-03-06T04:02:01.356Z,54.73
2023-03-06T04:04:49.426Z,52.83
2023-03-06T04:07:35.290Z,55.39
2023-03-06T04:10:21.244Z,55.53
2023-03-06T04:13:09.854Z,59.02
2023-03-06T04:15:55.715Z,57.39
2023-03-06T04:18:41.597Z,57.36
2023-03-06T04:21:27.488Z,55.84
2023-03-06T04:24:13.284Z,57.16
2023-03-06T04:26:59.181Z,57.59
2023-03-06T04:29:45.041Z,54.89
2023-03-06T04:32:30.969Z,55.17
2023-03-06T04:35:16.983Z,56.28
2023-03-06T04:38:02.945Z,57.21
2023-03-06T04:40:48.839Z,56.42
2023-03-06T04:43:34.806Z,55.37
2023-03-06T04:46:20.748Z,57.40
2023-03-06T04:49:06.593Z,54.86
2023-03-06T04:51:52.470Z,55.25
2023-03-06T04:54:39.830Z,54.89
2023-03-06T04:57:25.727Z,54.99
2023-03-06T05:00:11.600Z,54.58
2023-03-06T05:02:57.386Z,51.87
2023-03-06T05:05:43.454Z,51.31
2023-03-06T05:08:29.254Z,52.11
2023-03-06T05:11:15.123Z,52.72
2023-03-06T05:14:01.088Z,52.07
2023-03-06T05:16:46.743Z,51.88
2023-03-06T05:19:32.728Z,51.55
2023-03-06T05:22:18.578Z,52.18
2023-03-06T05:25:04.437Z,52.78
2023-03-06T05:27:50.482Z,51.91
2023-03-06T05:30:37.168Z,52.57
2023-03-06T05:33:23.140Z,52.13
2023-03-06T05:36:09.161Z,50.49
2023-03-06T05:38:55.067Z,53.88
2023-03-06T05:41:41.340Z,51.96
2023-03-06T05:44:27.078Z,51.91
2023-03-06T05:47:13.013Z,51.52
2023-03-06T05:49:58.892Z,50.22
2023-03-06T05:52:44.769Z,52.18
2023-03-06T05:55:30.536Z,50.54
2023-03-06T05:58:16.315Z,51.27
2023-03-06T06:01:02.141Z,52.15
2023-03-06T06:03:48.078Z,52.00
2023-03-06T06:06:33.931Z,51.91
2023-03-06T06:09:19.955Z,51.77
2023-03-06T06:12:07.858Z,51.92
2023-03-06T06:14:53.629Z,51.11
2023-03-06T06:17:40.132Z,51.78
2023-03-06T06:20:27.284Z,52.56
2023-03-06T06:23:13.127Z,52.92
2023-03-06T06:25:59.142Z,51.59
2023-03-06T06:28:45.045Z,50.85
2023-03-06T06:31:31.138Z,50.78
2023-03-06T06:34:17.012Z,50.54
2023-03-06T06:37:02.873Z,52.76
2023-03-06T06:39:48.845Z,52.79
2023-03-06T06:42:39.685Z,53.13
2023-03-06T06:45:26.055Z,52.28
2023-03-06T06:48:11.920Z,50.95
2023-03-06T06:50:57.835Z,50.80
2023-03-06T06:53:43.602Z,52.03
2023-03-06T06:56:29.486Z,54.28
2023-03-06T06:59:17.362Z,52.54
2023-03-06T07:02:03.539Z,52.23
2023-03-06T07:05:02.977Z,52.97
2023-03-06T07:07:49.731Z,52.96
2023-03-06T07:10:36.040Z,53.20
2023-03-06T07:13:22.029Z,52.38
2023-03-06T07:16:08.259Z,53.10
2023-03-06T07:18:54.626Z,53.66
2023-03-06T07:21:40.563Z,52.19
2023-03-06T07:24:26.981Z,54.59
2023-03-06T07:27:13.320Z,55.26
2023-03-06T07:30:00.452Z,56.84
2023-03-06T07:32:46.502Z,56.50
2023-03-06T07:35:32.545Z,55.22
2023-03-06T07:38:18.514Z,56.04
2023-03-06T07:41:04.366Z,55.84
2023-03-06T07:43:50.207Z,55.62
2023-03-06T07:46:36.137Z,54.66
2023-03-06T07:49:22.107Z,53.18
2023-03-06T07:52:08.185Z,53.24
2023-03-06T07:54:54.488Z,52.45
2023-03-06T07:57:40.379Z,51.85
2023-03-06T08:00:26.438Z,54.96
2023-03-06T08:03:12.772Z,53.47
2023-03-06T08:05:58.830Z,53.70
2023-03-06T08:08:44.729Z,54.47
2023-03-06T08:11:30.728Z,53.71
2023-03-06T08:14:16.760Z,52.79
2023-03-06T08:17:02.654Z,52.68
2023-03-06T08:19:48.628Z,53.65
2023-03-06T08:22:34.480Z,54.72
2023-03-06T08:25:20.281Z,53.76
2023-03-06T08:28:06.623Z,52.80
2023-03-06T08:30:52.658Z,52.50
2023-03-06T08:33:38.541Z,54.33
2023-03-06T08:36:24.646Z,56.44
2023-03-06T08:39:10.619Z,58.72
2023-03-06T08:41:56.617Z,58.68
2023-03-06T08:44:42.555Z,58.09
2023-03-06T08:47:28.515Z,59.38
2023-03-06T08:50:14.395Z,59.23
2023-03-06T08:53:01.871Z,58.41
2023-03-06T08:55:48.705Z,58.97
2023-03-06T08:58:34.553Z,56.48
2023-03-06T09:01:20.916Z,56.20
2023-03-06T09:04:06.727Z,58.90
2023-03-06T09:06:54.574Z,58.46
2023-03-06T09:09:41.660Z,60.16
2023-03-06T09:12:29.282Z,58.40
2023-03-06T09:15:16.846Z,55.17
2023-03-06T09:18:02.769Z,54.19
2023-03-06T09:20:48.577Z,49.57
2023-03-06T09:23:34.578Z,49.76
2023-03-06T09:26:28.021Z,51.24
2023-03-06T09:29:19.151Z,52.04
2023-03-06T09:32:05.170Z,54.30
2023-03-06T09:34:50.961Z,54.09
2023-03-06T09:37:36.964Z,55.41
2023-03-06T09:40:22.831Z,54.67
2023-03-06T09:43:08.732Z,55.44
2023-03-06T09:45:54.723Z,56.17
2023-03-06T09:48:40.686Z,53.59
2023-03-06T09:51:26.621Z,54.33
2023-03-06T09:54:12.516Z,53.91
2023-03-06T09:56:58.517Z,55.73
2023-03-06T09:59:44.315Z,53.99
2023-03-06T10:02:30.227Z,53.76
2023-03-06T10:05:16.531Z,53.71
2023-03-06T10:08:02.923Z,50.46
2023-03-06T10:10:48.809Z,51.82
2023-03-06T10:13:34.731Z,50.40
2023-03-06T10:16:20.677Z,51.46
2023-03-06T10:19:06.627Z,53.96
2023-03-06T10:21:52.542Z,47.31
2023-03-06T10:24:38.506Z,52.54
2023-03-06T10:27:24.481Z,48.44
2023-03-06T10:30:10.491Z,48.26
2023-03-06T10:32:56.379Z,44.64
2023-03-06T10:35:42.293Z,40.09
2023-03-06T10:38:28.267Z,39.64
2023-03-06T10:41:14.218Z,37.49
2023-03-06T10:44:00.414Z,41.27
2023-03-06T10:46:46.348Z,41.18
2023-03-06T10:49:32.239Z,40.50
2023-03-06T10:52:18.096Z,38.97
2023-03-06T10:55:03.974Z,39.01
2023-03-06T10:57:49.912Z,43.04
2023-03-06T11:00:35.810Z,38.23
2023-03-06T11:03:21.683Z,38.47
2023-03-06T11:06:07.739Z,37.58
2023-03-06T11:08:53.648Z,32.31
2023-03-06T11:11:39.670Z,34.31
2023-03-06T11:14:27.663Z,35.03
2023-03-06T11:17:13.655Z,35.75
2023-03-06T11:19:59.698Z,35.10
2023-03-06T11:22:47.539Z,35.32
2023-03-06T11:25:34.853Z,35.60
2023-03-06T11:28:20.827Z,34.92
2023-03-06T11:31:06.813Z,34.39
2023-03-06T11:33:52.823Z,32.68
2023-03-06T11:36:38.983Z,33.00
2023-03-06T11:39:25.130Z,30.25
2023-03-06T11:42:11.121Z,31.37
2023-03-06T11:44:57.088Z,29.93
2023-03-06T11:47:42.908Z,31.21
2023-03-06T11:50:29.003Z,32.64
2023-03-06T11:53:15.393Z,33.74
2023-03-06T11:56:01.261Z,34.23
2023-03-06T11:58:47.104Z,28.14
2023-03-06T12:01:32.970Z,27.92
2023-03-06T12:04:18.714Z,29.62
2023-03-06T12:07:07.221Z,29.64
2023-03-06T12:10:01.074Z,29.28
2023-03-06T12:12:48.540Z,27.98
2023-03-06T12:15:34.436Z,28.26
2023-03-06T12:18:21.454Z,29.04
2023-03-06T12:21:07.400Z,26.70
2023-03-06T12:23:53.136Z,28.00
2023-03-06T12:26:38.997Z,24.04
2023-03-06T12:29:25.136Z,20.75
2023-03-06T12:32:11.102Z,21.62
2023-03-06T12:34:57.069Z,20.78
2023-03-06T12:37:42.969Z,20.29
2023-03-06T12:40:29.011Z,20.39
2023-03-06T12:43:14.933Z,21.73
2023-03-06T12:46:00.825Z,21.19
2023-03-06T12:48:46.735Z,22.46
2023-03-06T12:51:32.805Z,20.15
2023-03-06T12:54:18.686Z,19.64
2023-03-06T12:57:04.479Z,19.30
2023-03-06T12:59:50.477Z,20.29
2023-03-06T13:02:36.427Z,20.78
2023-03-06T13:05:26.732Z,20.34
2023-03-06T13:08:13.089Z,18.19
2023-03-06T13:10:58.883Z,16.42
2023-03-06T13:13:44.858Z,15.90
2023-03-06T13:16:30.821Z,16.43
2023-03-06T13:19:16.900Z,15.72
2023-03-06T13:22:02.875Z,16.76
2023-03-06T13:24:50.819Z,18.19
2023-03-06T13:27:38.642Z,19.67
2023-03-06T13:30:24.623Z,20.65
2023-03-06T13:33:10.551Z,21.35
2023-03-06T13:35:56.488Z,20.71
2023-03-06T13:38:42.625Z,20.06
2023-03-06T13:41:28.480Z,19.02
2023-03-06T13:44:14.479Z,18.26
2023-03-06T13:47:00.414Z,19.04
2023-03-06T13:49:46.348Z,17.32
2023-03-06T13:52:32.333Z,16.81
2023-03-06T13:55:24.910Z,16.82
2023-03-06T13:58:10.968Z,16.73
2023-03-06T14:00:56.844Z,17.10
2023-03-06T14:03:42.880Z,16.25
2023-03-06T14:06:28.638Z,16.28
2023-03-06T14:09:14.498Z,16.89
2023-03-06T14:12:00.503Z,16.35
2023-03-06T14:14:46.601Z,18.74
2023-03-06T14:17:32.700Z,18.92
2023-03-06T14:20:18.672Z,19.57
2023-03-06T14:23:04.611Z,19.51
2023-03-06T14:25:50.444Z,19.11
2023-03-06T14:28:36.216Z,19.46
2023-03-06T14:31:22.225Z,19.42
2023-03-06T14:34:08.291Z,19.02
2023-03-06T14:36:54.331Z,18.42
2023-03-06T14:39:40.371Z,18.46
2023-03-06T14:42:26.166Z,17.89
2023-03-06T14:45:12.087Z,17.97
2023-03-06T14:47:58.128Z,16.84
2023-03-06T14:50:44.036Z,17.39
2023-03-06T14:53:30.009Z,18.02
2023-03-06T14:56:15.926Z,17.68
2023-03-06T14:59:01.801Z,17.67
2023-03-06T15:01:47.779Z,17.19
2023-03-06T15:04:36.239Z,17.89
2023-03-06T15:07:26.099Z,16.87
2023-03-06T15:10:11.966Z,17.31
2023-03-06T15:12:57.844Z,17.13
2023-03-06T15:15:43.692Z,16.79
2023-03-06T15:18:29.652Z,16.42
2023-03-06T15:21:15.539Z,16.95
2023-03-06T15:24:01.514Z,16.39
2023-03-06T15:26:47.470Z,16.48
2023-03-06T15:29:33.288Z,15.53
2023-03-06T15:32:19.165Z,16.31
2023-03-06T15:35:05.149Z,17.29
2023-03-06T15:37:51.081Z,16.54
2023-03-06T15:40:37.060Z,15.75
2023-03-06T15:43:22.896Z,16.77
2023-03-06T15:46:08.981Z,15.48
2023-03-06T15:48:54.977Z,15.78
2023-03-06T15:51:40.932Z,16.05
2023-03-06T15:54:26.800Z,15.93
2023-03-06T15:57:12.784Z,16.89
2023-03-06T15:59:58.786Z,14.50
2023-03-06T16:02:45.707Z,15.02
2023-03-06T16:05:34.702Z,15.22
2023-03-06T16:08:20.636Z,14.95
2023-03-06T16:11:06.569Z,15.45
2023-03-06T16:13:52.439Z,14.71
2023-03-06T16:16:38.431Z,15.82
2023-03-06T16:19:26.294Z,16.04
2023-03-06T16:22:13.518Z,15.18
2023-03-06T16:24:59.503Z,15.81
2023-03-06T16:27:45.635Z,15.97
2023-03-06T16:30:31.607Z,16.05
2023-03-06T16:33:17.574Z,16.22
2023-03-06T16:36:03.543Z,16.34
2023-03-06T16:38:49.420Z,17.48
2023-03-06T16:41:36.244Z,18.84
2023-03-06T16:44:25.622Z,17.37
2023-03-06T16:47:11.517Z,69.61
2023-03-06T16:49:57.611Z,32.78
2023-03-06T16:52:43.805Z,19.46
2023-03-06T16:55:29.712Z,16.44
2023-03-06T16:58:15.690Z,17.64
2023-03-06T17:01:01.646Z,17.17
2023-03-06T17:03:47.933Z,17.00
2023-03-06T17:06:33.931Z,17.19
2023-03-06T17:09:20.859Z,18.16
2023-03-06T17:12:06.796Z,18.02
2023-03-06T17:14:52.647Z,17.50
2023-03-06T17:17:40.418Z,18.33
2023-03-06T17:20:26.425Z,18.35
2023-03-06T17:23:12.429Z,18.22
2023-03-06T17:25:58.367Z,18.26
2023-03-06T17:28:44.359Z,18.30
2023-03-06T17:31:30.362Z,19.02
2023-03-06T17:34:16.282Z,18.65
2023-03-06T17:37:02.279Z,18.08
2023-03-06T17:39:48.258Z,17.97
2023-03-06T17:42:34.210Z,17.82
2023-03-06T17:45:20.358Z,17.64
2023-03-06T17:48:06.195Z,17.26
2023-03-06T17:50:52.124Z,17.88
2023-03-06T17:53:38.075Z,17.94
2023-03-06T17:56:23.965Z,19.40
2023-03-06T17:59:09.922Z,17.94
2023-03-06T18:01:55.857Z,18.59
2023-03-06T18:04:41.788Z,18.24
2023-03-06T18:07:29.896Z,18.15
2023-03-06T18:10:15.776Z,17.94
2023-03-06T18:13:01.728Z,17.94
2023-03-06T18:15:47.642Z,17.84
2023-03-06T18:18:33.993Z,17.98
2023-03-06T18:21:19.958Z,18.11
2023-03-06T18:24:05.961Z,18.41
2023-03-06T18:26:51.874Z,18.37
2023-03-06T18:29:37.973Z,18.31
2023-03-06T18:32:23.898Z,18.19
2023-03-06T18:35:09.712Z,18.10
2023-03-06T18:37:55.665Z,18.29
2023-03-06T18:40:41.502Z,18.76
2023-03-06T18:43:27.455Z,18.81
2023-03-06T18:46:13.547Z,19.47
2023-03-06T18:48:59.827Z,19.86
2023-03-06T18:51:45.781Z,19.04
2023-03-06T18:54:31.692Z,18.25
2023-03-06T18:57:17.534Z,19.32
2023-03-06T19:00:05.435Z,18.76
2023-03-06T19:02:51.352Z,19.02
2023-03-06T19:05:37.214Z,18.29
2023-03-06T19:08:23.124Z,17.78
2023-03-06T19:11:09.033Z,17.50
2023-03-06T19:13:55.347Z,16.68
2023-03-06T19:16:41.649Z,17.52
2023-03-06T19:19:27.560Z,17.30
2023-03-06T19:22:13.445Z,17.27
2023-03-06T19:25:06.601Z,17.25
2023-03-06T19:27:53.599Z,17.66
2023-03-06T19:30:39.343Z,16.52
2023-03-06T19:33:26.243Z,16.35
2023-03-06T19:36:12.234Z,16.26
2023-03-06T19:38:58.097Z,17.06
2023-03-06T19:41:44.047Z,16.49
2023-03-06T19:44:29.833Z,16.64
2023-03-06T19:47:15.827Z,15.73
2023-03-06T19:50:01.870Z,16.15
2023-03-06T19:52:48.261Z,16.51
2023-03-06T19:55:34.338Z,16.20
2023-03-06T19:58:20.175Z,17.05
2023-03-06T20:01:06.334Z,16.40
2023-03-06T20:03:52.591Z,16.31
2023-03-06T20:06:38.506Z,15.87
2023-03-06T20:09:24.437Z,15.86
2023-03-06T20:12:10.292Z,16.38
2023-03-06T20:14:56.206Z,16.66
2023-03-06T20:17:42.228Z,16.29
2023-03-06T20:20:28.636Z,15.89
2023-03-06T20:23:16.540Z,16.48
2023-03-06T20:26:02.900Z,16.65
2023-03-06T20:28:48.904Z,16.83
2023-03-06T20:31:34.728Z,16.85
2023-03-06T20:34:20.768Z,16.50
2023-03-06T20:37:06.602Z,16.17
2023-03-06T20:39:52.462Z,16.47
2023-03-06T20:42:38.951Z,16.60
2023-03-06T20:45:24.884Z,17.10
2023-03-06T20:48:10.625Z,16.38
2023-03-06T20:50:56.714Z,16.21
2023-03-06T20:53:42.522Z,16.76
2023-03-06T20:56:28.398Z,16.05
2023-03-06T20:59:14.292Z,15.30
2023-03-06T21:02:00.404Z,15.29
2023-03-06T21:04:46.669Z,15.03
2023-03-06T21:07:32.625Z,14.97
2023-03-06T21:10:18.553Z,14.82
2023-03-06T21:13:04.644Z,15.38
2023-03-06T21:15:50.559Z,16.22
2023-03-06T21:18:36.489Z,15.51
2023-03-06T21:21:22.351Z,15.86
2023-03-06T21:24:08.212Z,16.83
2023-03-06T21:26:54.246Z,17.24
2023-03-06T21:29:40.026Z,17.80
2023-03-06T21:32:25.889Z,17.47
2023-03-06T21:35:11.990Z,16.97
2023-03-06T21:37:57.744Z,17.08
2023-03-06T21:40:43.695Z,18.07
2023-03-06T21:43:29.499Z,17.69
2023-03-06T21:46:15.569Z,17.85
2023-03-06T21:49:01.679Z,18.30
2023-03-06T21:51:47.664Z,17.50
2023-03-06T21:54:33.694Z,17.35
2023-03-06T21:57:19.508Z,17.35
2023-03-06T22:00:05.475Z,17.48
2023-03-06T22:02:51.486Z,16.98
2023-03-06T22:05:37.197Z,17.09
2023-03-06T22:08:23.179Z,16.74
2023-03-06T22:11:09.137Z,17.06
2023-03-06T22:13:55.050Z,16.35
2023-03-06T22:16:41.562Z,17.13
2023-03-06T22:19:27.573Z,16.92
2023-03-06T22:22:13.577Z,17.39
2023-03-06T22:25:01.509Z,16.94
2023-03-06T22:27:48.994Z,16.31
2023-03-06T22:30:34.877Z,16.89
2023-03-06T22:33:21.026Z,16.74
2023-03-06T22:36:06.959Z,17.10
2023-03-06T22:38:53.034Z,17.25
2023-03-06T22:41:39.021Z,16.49
2023-03-06T22:44:24.831Z,17.05
2023-03-06T22:47:10.777Z,16.70
2023-03-06T22:49:56.782Z,16.58
2023-03-06T22:52:42.552Z,15.86
2023-03-06T22:55:28.433Z,15.78
2023-03-06T22:58:14.210Z,15.94
2023-03-06T23:01:00.240Z,16.34
2023-03-06T23:03:46.135Z,15.61
2023-03-06T23:06:32.047Z,16.28
2023-03-06T23:09:18.565Z,15.95
2023-03-06T23:12:04.469Z,16.32
2023-03-06T23:14:50.391Z,15.85
2023-03-06T23:17:36.195Z,15.72
2023-03-06T23:20:21.979Z,15.57
2023-03-06T23:23:07.928Z,15.23
2023-03-06T23:25:53.796Z,15.16
2023-03-06T23:28:39.602Z,16.09
2023-03-06T23:31:25.553Z,15.16
2023-03-06T23:34:11.512Z,15.75
2023-03-06T23:36:57.414Z,15.93
2023-03-06T23:39:43.446Z,16.29
2023-03-06T23:42:29.302Z,15.17
2023-03-06T23:45:15.231Z,15.33
2023-03-06T23:48:03.106Z,15.10
2023-03-06T23:50:48.963Z,15.15
2023-03-06T23:53:34.848Z,14.80
2023-03-06T23:56:20.881Z,15.42
2023-03-06T23:59:06.658Z,15.21
